createdAt,value
2017-03-04T00:00:50.979Z,950.2
2017-03-04T00:02:00.911Z,950.15
2017-03-04T00:03:10.822Z,950.18
2017-03-04T00:04:20.404Z,950.16
2017-03-04T00:05:29.976Z,950.18
2017-03-04T00:06:39.174Z,950.15
2017-03-04T00:07:49.120Z,950.18
2017-03-04T00:08:59.822Z,950.14
2017-03-04T00:10:08.627Z,950.16
2017-03-04T00:11:18.188Z,950.17
2017-03-04T00:12:27.297Z,950.17
2017-03-04T00:13:36.014Z,950.18
2017-03-04T00:14:45.901Z,950.13
2017-03-04T00:15:55.461Z,950.14
2017-03-04T00:17:05.034Z,950.13
2017-03-04T00:18:14.630Z,950.15
2017-03-04T00:19:24.202Z,950.08
2017-03-04T00:20:33.761Z,950.15
2017-03-04T00:21:43.333Z,950.06
2017-03-04T00:22:53.678Z,950.04
2017-03-04T00:24:02.805Z,950.07
2017-03-04T00:25:12.740Z,950.1
2017-03-04T00:26:23.418Z,950.1
2017-03-04T00:27:32.987Z,950.07
2017-03-04T00:28:43.160Z,950.02
2017-03-04T00:29:52.655Z,949.99
2017-03-04T00:31:01.865Z,950.02
2017-03-04T00:32:11.441Z,949.97
2017-03-04T00:33:21.399Z,949.99
2017-03-04T00:34:30.577Z,949.98
2017-03-04T00:35:40.137Z,950.02
2017-03-04T00:36:49.694Z,950.04
2017-03-04T00:38:00.233Z,949.96
2017-03-04T00:39:09.420Z,949.95
2017-03-04T00:40:19.331Z,949.92
2017-03-04T00:41:28.887Z,950.01
2017-03-04T00:42:39.248Z,949.89
2017-03-04T00:43:48.433Z,949.88
2017-03-04T00:44:58.410Z,949.89
2017-03-04T00:46:08.746Z,949.88
2017-03-04T00:47:18.694Z,949.83
2017-03-04T00:48:27.494Z,949.84
2017-03-04T00:49:37.514Z,949.8
2017-03-04T00:50:46.696Z,949.8
2017-03-04T00:51:56.251Z,949.76
2017-03-04T00:53:06.357Z,949.72
2017-03-04T00:54:15.906Z,949.7
2017-03-04T00:55:26.187Z,949.67
2017-03-04T00:56:34.983Z,949.67
2017-03-04T00:57:45.307Z,949.62
2017-03-04T00:58:55.233Z,949.58
2017-03-04T01:00:04.767Z,949.58
2017-03-04T01:01:14.720Z,949.56
2017-03-04T01:02:23.897Z,949.56
2017-03-04T01:03:33.473Z,949.49
2017-03-04T01:04:43.061Z,949.42
2017-03-04T01:05:52.258Z,949.45
2017-03-04T01:07:02.214Z,949.45
2017-03-04T01:08:11.775Z,949.47
2017-03-04T01:09:21.752Z,949.43
2017-03-04T01:10:31.319Z,949.48
2017-03-04T01:11:40.474Z,949.4
2017-03-04T01:12:49.277Z,949.44
2017-03-04T01:13:58.080Z,949.38
2017-03-04T01:15:08.033Z,949.39
2017-03-04T01:16:18.011Z,949.42
2017-03-04T01:17:27.590Z,949.42
2017-03-04T01:18:37.537Z,949.39
2017-03-04T01:19:47.887Z,949.33
2017-03-04T01:20:57.454Z,949.31
2017-03-04T01:22:07.819Z,949.37
2017-03-04T01:23:17.007Z,949.28
2017-03-04T01:24:26.575Z,949.24
2017-03-04T01:25:36.087Z,949.32
2017-03-04T01:26:44.874Z,949.29
2017-03-04T01:27:54.437Z,949.33
2017-03-04T01:29:03.607Z,949.29
2017-03-04T01:30:13.118Z,949.31
2017-03-04T01:31:22.316Z,949.22
2017-03-04T01:32:33.040Z,949.21
2017-03-04T01:33:42.614Z,949.2
2017-03-04T01:34:52.221Z,949.18
2017-03-04T01:36:01.355Z,949.14
2017-03-04T01:37:10.919Z,949.16
2017-03-04T01:38:20.112Z,949.17
2017-03-04T01:39:29.659Z,949.11
2017-03-04T01:40:39.939Z,949.12
2017-03-04T01:41:49.550Z,949.08
2017-03-04T01:42:59.133Z,949.07
2017-03-04T01:44:08.275Z,949.09
2017-03-04T01:45:17.871Z,949.03
2017-03-04T01:46:27.044Z,949.03
2017-03-04T01:47:36.220Z,949.08
2017-03-04T01:48:46.173Z,949
2017-03-04T01:49:56.130Z,949.03
2017-03-04T01:51:06.851Z,949.04
2017-03-04T01:52:16.428Z,949.04
2017-03-04T01:53:26.368Z,948.96
2017-03-04T01:54:36.329Z,949
2017-03-04T01:55:46.293Z,948.95
2017-03-04T01:56:55.929Z,948.95
2017-03-04T01:58:05.137Z,948.94
2017-03-04T01:59:15.105Z,948.89
2017-03-04T02:00:25.037Z,948.89
2017-03-04T02:01:34.163Z,948.89
2017-03-04T02:02:44.045Z,948.83
2017-03-04T02:03:53.258Z,948.81
2017-03-04T02:05:02.457Z,948.81
2017-03-04T02:06:12.366Z,948.8
2017-03-04T02:07:21.963Z,948.85
2017-03-04T02:08:31.928Z,948.77
2017-03-04T02:09:41.130Z,948.78
2017-03-04T02:10:51.659Z,948.73
2017-03-04T02:12:00.872Z,948.77
2017-03-04T02:13:10.816Z,948.64
2017-03-04T02:14:20.775Z,948.73
2017-03-04T02:15:30.763Z,948.75
2017-03-04T02:16:40.667Z,948.72
2017-03-04T02:17:49.476Z,948.72
2017-03-04T02:18:59.039Z,948.71
2017-03-04T02:20:09.379Z,948.66
2017-03-04T02:21:19.721Z,948.65
2017-03-04T02:22:28.917Z,948.7
2017-03-04T02:23:39.255Z,948.67
2017-03-04T02:24:49.203Z,948.67
2017-03-04T02:25:58.247Z,948.67
2017-03-04T02:27:07.824Z,948.67
2017-03-04T02:28:17.776Z,948.64
2017-03-04T02:29:27.727Z,948.61
2017-03-04T02:30:38.469Z,948.61
2017-03-04T02:31:47.593Z,948.63
2017-03-04T02:32:57.546Z,948.63
2017-03-04T02:34:06.704Z,948.6
2017-03-04T02:35:16.641Z,948.7
2017-03-04T02:36:26.536Z,948.67
2017-03-04T02:37:35.702Z,948.68
2017-03-04T02:38:45.224Z,948.65
2017-03-04T02:39:54.398Z,948.65
2017-03-04T02:41:03.592Z,948.58
2017-03-04T02:42:13.157Z,948.56
2017-03-04T02:43:22.336Z,948.53
2017-03-04T02:44:31.086Z,948.49
2017-03-04T02:45:40.585Z,948.56
2017-03-04T02:46:50.145Z,948.57
2017-03-04T02:47:59.671Z,948.6
2017-03-04T02:49:09.686Z,948.61
2017-03-04T02:50:20.417Z,948.59
2017-03-04T02:51:29.608Z,948.56
2017-03-04T02:52:39.940Z,948.54
2017-03-04T02:53:49.899Z,948.54
2017-03-04T02:54:58.694Z,948.51
2017-03-04T02:56:08.203Z,948.47
2017-03-04T02:57:18.163Z,948.45
2017-03-04T02:58:27.717Z,948.47
2017-03-04T02:59:36.839Z,948.47
2017-03-04T03:00:46.804Z,948.5
2017-03-04T03:01:56.420Z,948.52
2017-03-04T03:03:06.411Z,948.47
2017-03-04T03:04:16.011Z,948.49
2017-03-04T03:05:25.202Z,948.48
2017-03-04T03:06:34.772Z,948.49
2017-03-04T03:07:43.971Z,948.45
2017-03-04T03:08:54.321Z,948.45
2017-03-04T03:10:04.695Z,948.43
2017-03-04T03:11:14.649Z,948.43
2017-03-04T03:12:23.857Z,948.44
2017-03-04T03:13:33.818Z,948.41
2017-03-04T03:14:43.768Z,948.46
2017-03-04T03:15:53.735Z,948.43
2017-03-04T03:17:03.291Z,948.39
2017-03-04T03:18:12.812Z,948.38
2017-03-04T03:19:22.750Z,948.36
2017-03-04T03:20:32.334Z,948.4
2017-03-04T03:21:42.676Z,948.38
2017-03-04T03:22:53.000Z,948.32
2017-03-04T03:24:03.347Z,948.32
2017-03-04T03:25:13.310Z,948.3
2017-03-04T03:26:22.911Z,948.27
2017-03-04T03:27:32.479Z,948.29
2017-03-04T03:28:41.619Z,948.29
2017-03-04T03:29:50.816Z,948.28
2017-03-04T03:30:59.608Z,948.25
2017-03-04T03:32:09.588Z,948.29
2017-03-04T03:33:19.555Z,948.32
2017-03-04T03:34:35.886Z,948.29
2017-03-04T03:35:45.287Z,948.28
2017-03-04T03:36:54.500Z,948.23
2017-03-04T03:38:04.921Z,948.28
2017-03-04T03:39:13.727Z,948.3
2017-03-04T03:40:22.937Z,948.25
2017-03-04T03:41:32.765Z,948.22
2017-03-04T03:42:42.360Z,948.32
2017-03-04T03:43:52.727Z,948.21
2017-03-04T03:45:03.139Z,948.17
2017-03-04T03:46:12.347Z,948.2
2017-03-04T03:47:21.961Z,948.2
2017-03-04T03:48:31.095Z,948.18
2017-03-04T03:49:41.069Z,948.19
2017-03-04T03:50:51.438Z,948.15
2017-03-04T03:52:01.400Z,948.12
2017-03-04T03:53:10.978Z,948.11
2017-03-04T03:54:20.570Z,948.07
2017-03-04T03:55:30.157Z,948.05
2017-03-04T03:56:40.533Z,948.05
2017-03-04T03:57:50.883Z,948.13
2017-03-04T03:59:00.872Z,948.05
2017-03-04T04:00:10.868Z,948.05
2017-03-04T04:01:20.078Z,947.99
2017-03-04T04:02:29.668Z,947.97
2017-03-04T04:03:40.413Z,947.97
2017-03-04T04:04:50.528Z,947.94
2017-03-04T04:06:00.133Z,947.92
2017-03-04T04:07:10.130Z,947.95
2017-03-04T04:08:19.722Z,947.97
2017-03-04T04:09:29.316Z,947.97
2017-03-04T04:10:39.287Z,947.98
2017-03-04T04:11:49.647Z,947.95
2017-03-04T04:12:59.248Z,947.96
2017-03-04T04:14:08.845Z,947.97
2017-03-04T04:15:18.855Z,948
2017-03-04T04:16:28.440Z,948.02
2017-03-04T04:17:37.969Z,948.06
2017-03-04T04:18:47.578Z,948.03
2017-03-04T04:19:56.786Z,948.01
2017-03-04T04:21:06.380Z,948
2017-03-04T04:22:15.594Z,947.95
2017-03-04T04:23:25.022Z,947.96
2017-03-04T04:24:34.628Z,947.96
2017-03-04T04:25:44.613Z,948
2017-03-04T04:26:53.828Z,947.98
2017-03-04T04:28:03.811Z,947.98
2017-03-04T04:29:13.021Z,947.95
2017-03-04T04:30:22.620Z,947.93
2017-03-04T04:31:31.823Z,947.95
2017-03-04T04:32:40.608Z,947.9
2017-03-04T04:33:49.820Z,947.9
2017-03-04T04:35:00.116Z,947.89
2017-03-04T04:36:09.670Z,947.9
2017-03-04T04:37:18.811Z,947.87
2017-03-04T04:38:28.403Z,947.92
2017-03-04T04:39:38.397Z,947.9
2017-03-04T04:40:48.384Z,947.91
2017-03-04T04:41:57.957Z,947.85
2017-03-04T04:43:07.543Z,947.86
2017-03-04T04:44:17.527Z,947.86
2017-03-04T04:45:27.132Z,947.82
2017-03-04T04:46:37.109Z,947.83
2017-03-04T04:47:45.921Z,947.76
2017-03-04T04:48:54.743Z,947.77
2017-03-04T04:50:04.325Z,947.77
2017-03-04T04:51:13.502Z,947.84
2017-03-04T04:52:23.474Z,947.83
2017-03-04T04:53:32.638Z,947.8
2017-03-04T04:54:41.882Z,947.81
2017-03-04T04:55:51.864Z,947.8
2017-03-04T04:57:01.394Z,947.74
2017-03-04T04:58:11.777Z,947.77
2017-03-04T04:59:21.764Z,947.72
2017-03-04T05:00:31.737Z,947.72
2017-03-04T05:01:40.984Z,947.74
2017-03-04T05:02:49.807Z,947.73
2017-03-04T05:03:59.406Z,947.72
2017-03-04T05:05:08.986Z,947.73
2017-03-04T05:06:18.579Z,947.72
2017-03-04T05:07:27.802Z,947.72
2017-03-04T05:08:37.779Z,947.76
2017-03-04T05:09:47.360Z,947.73
2017-03-04T05:10:56.558Z,947.77
2017-03-04T05:12:06.183Z,947.71
2017-03-04T05:13:15.791Z,947.62
2017-03-04T05:14:25.374Z,947.67
2017-03-04T05:15:35.344Z,947.65
2017-03-04T05:16:45.297Z,947.69
2017-03-04T05:17:55.214Z,947.69
2017-03-04T05:19:05.164Z,947.66
2017-03-04T05:20:14.756Z,947.65
2017-03-04T05:21:24.733Z,947.68
2017-03-04T05:22:34.386Z,947.68
2017-03-04T05:23:44.379Z,947.69
2017-03-04T05:24:54.352Z,947.71
2017-03-04T05:26:04.723Z,947.77
2017-03-04T05:27:14.698Z,947.72
2017-03-04T05:28:24.698Z,947.73
2017-03-04T05:29:34.303Z,947.67
2017-03-04T05:30:44.289Z,947.73
2017-03-04T05:31:54.288Z,947.68
2017-03-04T05:33:03.880Z,947.72
2017-03-04T05:34:13.472Z,947.69
2017-03-04T05:35:22.256Z,947.73
2017-03-04T05:36:31.801Z,947.71
2017-03-04T05:37:41.313Z,947.76
2017-03-04T05:38:51.637Z,947.66
2017-03-04T05:40:01.987Z,947.64
2017-03-04T05:41:11.967Z,947.62
2017-03-04T05:42:21.966Z,947.6
2017-03-04T05:43:32.333Z,947.68
2017-03-04T05:44:42.302Z,947.71
2017-03-04T05:45:51.507Z,947.72
2017-03-04T05:47:00.652Z,947.7
2017-03-04T05:48:09.844Z,947.68
2017-03-04T05:49:20.215Z,947.65
2017-03-04T05:50:29.406Z,947.7
2017-03-04T05:51:39.018Z,947.68
2017-03-04T05:52:48.245Z,947.66
2017-03-04T05:53:57.818Z,947.68
2017-03-04T05:55:07.043Z,947.62
2017-03-04T05:56:17.017Z,947.63
2017-03-04T05:57:27.007Z,947.61
2017-03-04T05:58:36.976Z,947.66
2017-03-04T05:59:46.495Z,947.64
2017-03-04T06:00:56.084Z,947.64
2017-03-04T06:02:06.439Z,947.64
2017-03-04T06:03:16.007Z,947.64
2017-03-04T06:04:25.526Z,947.58
2017-03-04T06:05:35.070Z,947.6
2017-03-04T06:06:44.649Z,947.56
2017-03-04T06:07:54.638Z,947.59
2017-03-04T06:09:04.211Z,947.54
2017-03-04T06:10:13.797Z,947.58
2017-03-04T06:11:23.321Z,947.61
2017-03-04T06:12:32.915Z,947.5
2017-03-04T06:13:42.501Z,947.54
2017-03-04T06:14:52.871Z,947.51
2017-03-04T06:16:02.840Z,947.54
2017-03-04T06:17:13.223Z,947.54
2017-03-04T06:18:23.594Z,947.55
2017-03-04T06:19:33.948Z,947.56
2017-03-04T06:20:43.474Z,947.57
2017-03-04T06:21:52.644Z,947.59
2017-03-04T06:23:02.624Z,947.57
2017-03-04T06:24:12.943Z,947.6
2017-03-04T06:25:21.758Z,947.59
2017-03-04T06:26:30.586Z,947.59
2017-03-04T06:27:39.786Z,947.53
2017-03-04T06:28:48.626Z,947.6
2017-03-04T06:29:58.570Z,947.52
2017-03-04T06:31:08.948Z,947.55
2017-03-04T06:32:18.484Z,947.53
2017-03-04T06:33:28.076Z,947.57
2017-03-04T06:34:38.424Z,947.53
2017-03-04T06:35:48.334Z,947.58
2017-03-04T06:36:57.892Z,947.5
2017-03-04T06:38:07.485Z,947.57
2017-03-04T06:39:17.459Z,947.53
2017-03-04T06:40:27.092Z,947.53
2017-03-04T06:41:36.685Z,947.51
2017-03-04T06:42:47.372Z,947.56
2017-03-04T06:43:57.746Z,947.56
2017-03-04T06:45:07.292Z,947.56
2017-03-04T06:46:17.276Z,947.51
2017-03-04T06:47:27.240Z,947.53
2017-03-04T06:48:37.230Z,947.54
2017-03-04T06:49:46.771Z,947.49
2017-03-04T06:50:56.763Z,947.5
2017-03-04T06:52:06.350Z,947.44
2017-03-04T06:53:15.956Z,947.47
2017-03-04T06:54:25.938Z,947.45
2017-03-04T06:55:35.528Z,947.47
2017-03-04T06:56:45.124Z,947.43
2017-03-04T06:57:55.107Z,947.44
2017-03-04T06:59:04.322Z,947.46
2017-03-04T07:00:13.527Z,947.47
2017-03-04T07:01:23.881Z,947.51
2017-03-04T07:02:33.470Z,947.51
2017-03-04T07:03:43.431Z,947.54
2017-03-04T07:04:53.406Z,947.52
2017-03-04T07:06:03.766Z,947.54
2017-03-04T07:07:13.386Z,947.5
2017-03-04T07:08:24.124Z,947.45
2017-03-04T07:09:33.316Z,947.47
2017-03-04T07:10:42.519Z,947.5
2017-03-04T07:11:52.106Z,947.48
2017-03-04T07:13:02.470Z,947.48
2017-03-04T07:14:11.666Z,947.48
2017-03-04T07:15:21.210Z,947.48
2017-03-04T07:16:30.798Z,947.55
2017-03-04T07:17:40.763Z,947.52
2017-03-04T07:18:50.360Z,947.57
2017-03-04T07:19:59.550Z,947.54
2017-03-04T07:21:09.152Z,947.54
2017-03-04T07:22:19.127Z,947.48
2017-03-04T07:23:28.708Z,947.46
2017-03-04T07:24:39.047Z,947.42
2017-03-04T07:25:48.635Z,947.44
2017-03-04T07:26:58.199Z,947.41
2017-03-04T07:28:08.160Z,947.37
2017-03-04T07:29:17.725Z,947.38
2017-03-04T07:30:26.490Z,947.41
2017-03-04T07:31:36.873Z,947.38
2017-03-04T07:32:45.701Z,947.38
2017-03-04T07:33:55.285Z,947.35
2017-03-04T07:35:05.216Z,947.3
2017-03-04T07:36:15.224Z,947.37
2017-03-04T07:37:25.973Z,947.39
2017-03-04T07:38:35.975Z,947.36
2017-03-04T07:39:45.988Z,947.31
2017-03-04T07:40:55.967Z,947.41
2017-03-04T07:42:05.552Z,947.46
2017-03-04T07:43:15.473Z,947.47
2017-03-04T07:44:25.044Z,947.47
2017-03-04T07:45:35.343Z,947.45
2017-03-04T07:46:44.566Z,947.45
2017-03-04T07:47:54.924Z,947.54
2017-03-04T07:49:03.749Z,947.48
2017-03-04T07:50:12.992Z,947.46
2017-03-04T07:51:22.978Z,947.44
2017-03-04T07:52:31.787Z,947.46
2017-03-04T07:53:41.335Z,947.48
2017-03-04T07:54:50.936Z,947.49
2017-03-04T07:56:00.099Z,947.5
2017-03-04T07:57:10.068Z,947.43
2017-03-04T07:58:18.917Z,947.31
2017-03-04T07:59:28.110Z,947.28
2017-03-04T08:00:37.310Z,947.25
2017-03-04T08:01:46.060Z,947.3
2017-03-04T08:02:55.268Z,947.36
2017-03-04T08:04:04.467Z,947.4
2017-03-04T08:05:13.665Z,947.39
2017-03-04T08:06:22.870Z,947.36
2017-03-04T08:07:32.469Z,947.39
2017-03-04T08:08:42.809Z,947.39
2017-03-04T08:09:51.957Z,947.32
2017-03-04T08:11:01.567Z,947.33
2017-03-04T08:12:11.555Z,947.25
2017-03-04T08:13:20.766Z,947.28
2017-03-04T08:14:30.352Z,947.22
2017-03-04T08:15:39.544Z,947.28
2017-03-04T08:16:49.536Z,947.27
2017-03-04T08:17:58.732Z,947.23
2017-03-04T08:19:08.645Z,947.19
2017-03-04T08:20:17.848Z,947.17
2017-03-04T08:21:26.677Z,947.12
2017-03-04T08:22:36.202Z,947.18
2017-03-04T08:23:45.740Z,947.15
2017-03-04T08:24:55.319Z,947.12
2017-03-04T08:26:05.455Z,947.13
2017-03-04T08:27:15.066Z,947.17
2017-03-04T08:28:24.663Z,947.18
2017-03-04T08:29:34.269Z,947.21
2017-03-04T08:30:43.459Z,947.24
2017-03-04T08:31:53.367Z,947.27
2017-03-04T08:33:03.287Z,947.24
2017-03-04T08:34:12.528Z,947.25
2017-03-04T08:35:22.121Z,947.19
2017-03-04T08:36:30.957Z,947.18
2017-03-04T08:37:40.166Z,947.2
2017-03-04T08:38:50.533Z,947.16
2017-03-04T08:39:59.726Z,947.11
2017-03-04T08:41:09.329Z,947.11
2017-03-04T08:42:18.926Z,947.08
2017-03-04T08:43:28.537Z,947.09
2017-03-04T08:44:38.903Z,947.05
2017-03-04T08:45:48.484Z,947.08
2017-03-04T08:46:57.719Z,947.09
2017-03-04T08:48:07.331Z,947.1
2017-03-04T08:49:16.914Z,947.07
2017-03-04T08:50:26.899Z,947.07
2017-03-04T08:51:36.432Z,947.01
2017-03-04T08:52:46.389Z,947.02
2017-03-04T08:53:55.982Z,947
2017-03-04T08:55:06.195Z,946.94
2017-03-04T08:56:15.392Z,946.96
2017-03-04T08:57:24.564Z,947
2017-03-04T08:58:34.171Z,947.01
2017-03-04T08:59:43.755Z,947.02
2017-03-04T09:00:52.937Z,947.03
2017-03-04T09:02:02.947Z,947.01
2017-03-04T09:03:13.309Z,947.04
2017-03-04T09:04:24.080Z,946.99
2017-03-04T09:05:33.678Z,947.03
2017-03-04T09:06:42.911Z,946.98
2017-03-04T09:07:53.235Z,946.95
2017-03-04T09:09:03.873Z,946.95
2017-03-04T09:10:13.480Z,946.92
2017-03-04T09:11:22.674Z,946.88
2017-03-04T09:12:32.666Z,946.88
2017-03-04T09:13:41.907Z,946.86
2017-03-04T09:14:51.895Z,946.83
2017-03-04T09:16:01.888Z,946.82
2017-03-04T09:17:11.497Z,946.77
2017-03-04T09:18:21.099Z,946.76
2017-03-04T09:19:30.313Z,946.76
2017-03-04T09:20:40.231Z,946.78
2017-03-04T09:21:49.417Z,946.73
2017-03-04T09:22:59.023Z,946.77
2017-03-04T09:24:09.034Z,946.71
2017-03-04T09:25:19.001Z,946.69
2017-03-04T09:26:28.603Z,946.73
2017-03-04T09:27:39.026Z,946.68
2017-03-04T09:28:49.045Z,946.65
2017-03-04T09:29:58.641Z,946.65
2017-03-04T09:31:07.693Z,946.64
2017-03-04T09:32:16.509Z,946.64
2017-03-04T09:33:26.883Z,946.63
2017-03-04T09:34:36.093Z,946.69
2017-03-04T09:35:45.684Z,946.56
2017-03-04T09:36:55.286Z,946.52
2017-03-04T09:38:05.648Z,946.51
2017-03-04T09:39:16.039Z,946.42
2017-03-04T09:40:26.403Z,946.5
2017-03-04T09:41:35.976Z,946.49
2017-03-04T09:42:44.782Z,946.48
2017-03-04T09:43:53.949Z,946.53
2017-03-04T09:45:03.562Z,946.46
2017-03-04T09:46:13.946Z,946.49
2017-03-04T09:47:23.524Z,946.44
2017-03-04T09:48:33.065Z,946.39
2017-03-04T09:49:42.668Z,946.42
2017-03-04T09:50:51.876Z,946.42
2017-03-04T09:52:01.868Z,946.45
2017-03-04T09:53:11.465Z,946.47
2017-03-04T09:54:21.050Z,946.42
2017-03-04T09:55:31.035Z,946.44
2017-03-04T09:56:41.015Z,946.42
2017-03-04T09:57:49.832Z,946.39
2017-03-04T09:59:00.588Z,946.31
2017-03-04T10:00:10.515Z,946.27
2017-03-04T10:01:20.491Z,946.21
2017-03-04T10:02:30.086Z,946.19
2017-03-04T10:03:40.474Z,946.15
2017-03-04T10:04:50.488Z,946.19
2017-03-04T10:06:00.073Z,946.19
2017-03-04T10:07:10.063Z,946.25
2017-03-04T10:08:19.277Z,946.21
2017-03-04T10:09:28.864Z,946.25
2017-03-04T10:10:38.467Z,946.25
2017-03-04T10:11:48.092Z,946.19
2017-03-04T10:12:58.093Z,946.14
2017-03-04T10:14:07.667Z,946.09
2017-03-04T10:15:17.579Z,946.07
2017-03-04T10:16:26.803Z,946.1
2017-03-04T10:17:36.004Z,946.07
2017-03-04T10:18:44.816Z,946.06
2017-03-04T10:19:54.758Z,946.04
2017-03-04T10:21:04.354Z,946.1
2017-03-04T10:22:14.318Z,946.03
2017-03-04T10:23:23.924Z,946
2017-03-04T10:24:33.522Z,946.01
2017-03-04T10:25:43.146Z,946.05
2017-03-04T10:26:53.166Z,946.01
2017-03-04T10:28:02.754Z,946.02
2017-03-04T10:29:11.949Z,945.99
2017-03-04T10:30:21.580Z,946.01
2017-03-04T10:31:30.714Z,946.08
2017-03-04T10:32:39.913Z,946.06
2017-03-04T10:33:49.477Z,946.02
2017-03-04T10:34:59.173Z,946.03
2017-03-04T10:36:09.176Z,946.01
2017-03-04T10:37:18.722Z,946.04
2017-03-04T10:38:28.701Z,946.14
2017-03-04T10:39:38.282Z,946.13
2017-03-04T10:40:48.667Z,946.13
2017-03-04T10:41:57.858Z,946.16
2017-03-04T10:43:07.443Z,946.13
2017-03-04T10:44:17.004Z,946.15
2017-03-04T10:45:26.221Z,946.14
2017-03-04T10:46:35.056Z,946.21
2017-03-04T10:47:43.844Z,946.19
2017-03-04T10:48:52.992Z,946.1
2017-03-04T10:50:02.144Z,946.17
2017-03-04T10:51:11.760Z,946.15
2017-03-04T10:52:21.788Z,946.13
2017-03-04T10:53:31.380Z,946.11
2017-03-04T10:54:41.361Z,946.1
2017-03-04T10:55:50.929Z,946.09
2017-03-04T10:57:00.514Z,946.14
2017-03-04T10:58:10.818Z,946.13
2017-03-04T10:59:21.190Z,946.1
2017-03-04T11:00:31.169Z,946.17
2017-03-04T11:01:40.705Z,946.15
2017-03-04T11:02:49.912Z,946.15
2017-03-04T11:03:59.431Z,946.13
2017-03-04T11:05:09.408Z,946.04
2017-03-04T11:06:19.340Z,946.06
2017-03-04T11:07:28.554Z,946
2017-03-04T11:08:37.745Z,946.13
2017-03-04T11:09:48.107Z,946.1
2017-03-04T11:10:58.080Z,946.18
2017-03-04T11:12:07.629Z,946.16
2017-03-04T11:13:17.174Z,946.17
2017-03-04T11:14:26.757Z,946.09
2017-03-04T11:15:35.923Z,946.06
2017-03-04T11:16:45.153Z,946.11
2017-03-04T11:17:54.772Z,946.16
2017-03-04T11:19:05.150Z,946.13
2017-03-04T11:20:15.534Z,946.1
2017-03-04T11:21:24.759Z,946.08
2017-03-04T11:22:33.986Z,945.98
2017-03-04T11:23:44.009Z,945.95
2017-03-04T11:24:53.998Z,945.95
2017-03-04T11:26:04.191Z,945.95
2017-03-04T11:27:13.415Z,945.91
2017-03-04T11:28:23.018Z,946
2017-03-04T11:29:32.632Z,945.97
2017-03-04T11:30:42.235Z,945.93
2017-03-04T11:31:51.858Z,945.93
2017-03-04T11:33:01.483Z,945.92
2017-03-04T11:34:10.685Z,945.91
2017-03-04T11:35:21.043Z,945.95
2017-03-04T11:36:30.560Z,945.93
2017-03-04T11:37:40.495Z,945.9
2017-03-04T11:38:49.314Z,945.84
2017-03-04T11:39:58.847Z,945.77
2017-03-04T11:41:08.445Z,945.78
2017-03-04T11:42:18.063Z,945.84
2017-03-04T11:43:27.278Z,945.89
2017-03-04T11:44:37.285Z,945.88
2017-03-04T11:45:46.887Z,945.8
2017-03-04T11:46:56.882Z,945.83
2017-03-04T11:48:06.465Z,945.85
2017-03-04T11:49:16.848Z,945.87
2017-03-04T11:50:26.459Z,945.81
2017-03-04T11:51:36.049Z,945.82
2017-03-04T11:52:46.397Z,945.83
2017-03-04T11:53:55.949Z,945.82
2017-03-04T11:55:05.570Z,945.8
2017-03-04T11:56:14.773Z,945.72
2017-03-04T11:57:24.755Z,945.7
2017-03-04T11:58:35.124Z,945.68
2017-03-04T11:59:45.717Z,945.68
2017-03-04T12:00:54.940Z,945.6
2017-03-04T12:02:04.118Z,945.62
2017-03-04T12:03:13.360Z,945.57
2017-03-04T12:04:24.073Z,945.58
2017-03-04T12:05:34.056Z,945.57
2017-03-04T12:06:44.047Z,945.58
2017-03-04T12:07:53.661Z,945.63
2017-03-04T12:09:03.279Z,945.57
2017-03-04T12:10:13.286Z,945.57
2017-03-04T12:11:22.883Z,945.54
2017-03-04T12:12:32.483Z,945.47
2017-03-04T12:13:42.466Z,945.45
2017-03-04T12:14:52.049Z,945.44
2017-03-04T12:16:01.978Z,945.42
2017-03-04T12:17:11.963Z,945.37
2017-03-04T12:18:21.579Z,945.35
2017-03-04T12:19:30.727Z,945.36
2017-03-04T12:20:40.319Z,945.32
2017-03-04T12:21:50.295Z,945.36
2017-03-04T12:22:59.883Z,945.32
2017-03-04T12:24:09.855Z,945.31
2017-03-04T12:25:19.082Z,945.3
2017-03-04T12:26:28.642Z,945.33
2017-03-04T12:27:39.054Z,945.31
2017-03-04T12:28:48.471Z,945.26
2017-03-04T12:29:58.437Z,945.3
2017-03-04T12:31:08.222Z,945.27
2017-03-04T12:32:17.442Z,945.24
2017-03-04T12:33:26.254Z,945.24
2017-03-04T12:34:35.482Z,945.22
2017-03-04T12:35:44.686Z,945.2
2017-03-04T12:36:54.288Z,945.16
2017-03-04T12:38:04.307Z,945.14
2017-03-04T12:39:14.299Z,945.11
2017-03-04T12:40:24.655Z,945.1
2017-03-04T12:41:34.269Z,945.11
2017-03-04T12:42:44.629Z,945.04
2017-03-04T12:43:53.757Z,945.06
2017-03-04T12:45:04.150Z,945.05
2017-03-04T12:46:13.785Z,945.01
2017-03-04T12:47:23.242Z,944.93
2017-03-04T12:48:33.197Z,944.94
2017-03-04T12:49:42.782Z,944.91
2017-03-04T12:50:52.762Z,944.85
2017-03-04T12:52:02.742Z,944.86
2017-03-04T12:53:12.279Z,944.9
2017-03-04T12:54:22.250Z,944.86
2017-03-04T12:55:31.883Z,944.77
2017-03-04T12:56:41.512Z,944.73
2017-03-04T12:57:51.097Z,944.68
2017-03-04T12:59:00.693Z,944.61
2017-03-04T13:00:10.230Z,944.61
2017-03-04T13:01:20.237Z,944.57
2017-03-04T13:02:29.443Z,944.53
2017-03-04T13:03:38.635Z,944.49
2017-03-04T13:04:47.778Z,944.59
2017-03-04T13:05:57.359Z,944.54
2017-03-04T13:07:06.233Z,944.55
2017-03-04T13:08:15.449Z,944.56
2017-03-04T13:09:25.013Z,944.54
2017-03-04T13:10:34.178Z,944.52
2017-03-04T13:11:43.408Z,944.52
2017-03-04T13:12:53.393Z,944.55
2017-03-04T13:14:02.985Z,944.48
2017-03-04T13:15:12.199Z,944.52
2017-03-04T13:16:21.412Z,944.57
2017-03-04T13:17:31.803Z,944.5
2017-03-04T13:18:40.991Z,944.49
2017-03-04T13:19:50.138Z,944.52
2017-03-04T13:20:59.271Z,944.49
2017-03-04T13:22:08.809Z,944.53
2017-03-04T13:23:19.166Z,944.54
2017-03-04T13:24:28.818Z,944.52
2017-03-04T13:25:38.032Z,944.53
2017-03-04T13:26:48.383Z,944.49
2017-03-04T13:27:58.281Z,944.52
2017-03-04T13:29:08.214Z,944.53
2017-03-04T13:30:18.021Z,944.57
2017-03-04T13:31:27.577Z,944.59
2017-03-04T13:32:36.381Z,944.58
2017-03-04T13:33:46.373Z,944.62
2017-03-04T13:34:56.753Z,944.64
2017-03-04T13:36:06.734Z,944.65
2017-03-04T13:37:15.916Z,944.64
2017-03-04T13:38:25.471Z,944.65
2017-03-04T13:39:34.239Z,944.67
2017-03-04T13:40:43.464Z,944.64
2017-03-04T13:41:53.838Z,944.64
2017-03-04T13:43:03.616Z,944.64
2017-03-04T13:44:13.229Z,944.63
2017-03-04T13:45:22.815Z,944.64
2017-03-04T13:46:32.802Z,944.65
2017-03-04T13:47:42.376Z,944.66
2017-03-04T13:48:51.506Z,944.66
2017-03-04T13:50:02.265Z,944.61
2017-03-04T13:51:12.266Z,944.63
2017-03-04T13:52:21.790Z,944.6
2017-03-04T13:53:31.696Z,944.61
2017-03-04T13:54:40.873Z,944.61
2017-03-04T13:55:49.686Z,944.58
2017-03-04T13:56:59.307Z,944.58
2017-03-04T13:58:09.288Z,944.55
2017-03-04T13:59:18.902Z,944.57
2017-03-04T14:00:28.430Z,944.61
2017-03-04T14:01:37.235Z,944.61
2017-03-04T14:02:46.809Z,944.64
2017-03-04T14:03:55.576Z,944.66
2017-03-04T14:05:05.476Z,944.64
2017-03-04T14:06:15.810Z,944.68
2017-03-04T14:07:25.778Z,944.67
2017-03-04T14:08:35.766Z,944.68
2017-03-04T14:09:46.083Z,944.72
2017-03-04T14:10:54.904Z,944.67
2017-03-04T14:12:04.893Z,944.63
2017-03-04T14:13:14.856Z,944.63
2017-03-04T14:14:24.423Z,944.68
2017-03-04T14:15:34.345Z,944.65
2017-03-04T14:16:43.917Z,944.6
2017-03-04T14:17:53.523Z,944.59
2017-03-04T14:19:03.529Z,944.64
2017-03-04T14:20:13.071Z,944.68
2017-03-04T14:21:23.059Z,944.72
2017-03-04T14:22:32.632Z,944.72
2017-03-04T14:23:42.617Z,944.7
2017-03-04T14:24:52.625Z,944.67
2017-03-04T14:26:02.221Z,944.65
2017-03-04T14:27:11.822Z,944.64
2017-03-04T14:28:20.653Z,944.69
2017-03-04T14:29:30.262Z,944.7
2017-03-04T14:30:41.015Z,944.63
2017-03-04T14:31:50.587Z,944.68
2017-03-04T14:33:00.558Z,944.68